Terminal Aerodrome Forecast
Issued by NWS

Home | Current Version | Previous Version | Text Only | Print | Product List | Glossary Off
Versions: 1 2 3 4 5 6 7 8 9 10 11 12 13 14 15 16

872
FTUS43 KICT 020540
TAFRSL
TAF
KRSL 020540Z 0206/0306 24007KT P6SM SKC
     FM020800 28007KT P6SM SKC
     FM021300 19007KT P6SM BKN250=

USA.gov is the U.S. government's official web portal to all federal, state and local government web resources and services.